Aviation Digital Data Service (ADDS)

Output produced by METARs form (1732 UTC 03 June 2020)
found at http://www.aviationweather.gov/metar/data/
 
Forecast for: KPHX (PHOENIX/SKY HRBR, AZ, US)
Text: KPHX 031508Z 0315/0418 10006KT P6SM FEW150
Forecast period: 1500 to 1900 UTC 03 June 2020
Forecast type: FROM: standard forecast or significant change
Winds: from the E (100 degrees) at 7 MPH (6 knots; 3.1 m/s)
Visibility: 6 or more miles 10+ km)
Ceiling: at least 12,000 feet AGL
Clouds: few clouds at 15000 feet AGL
Weather: no significant weather forecast for this period
Text: FM031900 27008KT P6SM FEW150
Forecast period: 1900 UTC 03 June 2020 to 1000 UTC 04 June 2020
Forecast type: FROM: standard forecast or significant change
Winds: from the W (270 degrees) at 9 MPH (8 knots; 4.1 m/s)
Visibility: 6 or more miles 10+ km)
Ceiling: at least 12,000 feet AGL
Clouds: few clouds at 15000 feet AGL
Weather: no significant weather forecast for this period
Text: FM041000 09005KT P6SM SKC
Forecast period: 1000 to 1800 UTC 04 June 2020
Forecast type: FROM: standard forecast or significant change
Winds: from the E (90 degrees) at 6 MPH (5 knots; 2.6 m/s)
Visibility: 6 or more miles 10+ km)
Clouds: clear skies
Weather: no significant weather forecast for this period